Tropical Cyclones
[Index]
Main Index Home Page Stock Weather Photos Extreme Storms Discussion Storm News and Storm Chasing Reports Tropical Cyclones / Hurricanes / Typhoons Weather Data and Links Wild Fires / Bushfires Weather Observation Techniques Weather Picture Catalogue Tornado Pictures and Reports Stock Video Footage and DVDs for sale
Season 1984-1985 Tropical Cyclone 198504 Track Map
Season 1984-1985 Summaries: [BoM-AU] [JTWC-AU] [JTWC-SIO] [JTWC-SPAC] [JTWC-SH]
<<- Previous TC | JTWC 1984-1985 Season | Next TC ->>

click for intensity scale information  Lat/long Grid: Show Hide

 Date Labels: Show Hide

Joint Typhoon Warning Centre Cyclone Data

Name: 198504

08 Dec 1984 06:00 UTC to 13 Dec 1984 18:00 UTC

    date/time    lat    long     hPa   cat  kts
1984-12-08 06   10.0   131.7                  25          
1984-12-08 12   10.0   131.0                  30          
1984-12-08 18   10.2   130.5                  30          
1984-12-09 00   10.6   130.2                  30          
1984-12-09 06   11.0   130.3                  30          
1984-12-09 12   11.3   130.6                  30          
1984-12-09 18   11.4   131.1                  30          
1984-12-10 00   11.4   131.6                  30          
1984-12-10 06   11.4   132.2                  25          
1984-12-10 12   11.4   132.7                  25          
1984-12-10 18   11.6   133.3                  25          
1984-12-11 00   12.1   134.3                  25          
1984-12-11 06   12.7   135.7                  25          
1984-12-11 12   13.2   137.2                  25          
1984-12-11 18   13.7   138.6                  30          
1984-12-12 00   14.0   139.2                  35          
1984-12-12 06   14.2   139.2                  35          
1984-12-12 12   14.5   138.9                  35          
1984-12-12 18   14.9   138.6                  30          
1984-12-13 00   15.3   138.5                  30          
1984-12-13 06   15.7   138.4                  25          
1984-12-13 12   16.1   138.3                  25          
1984-12-13 18   16.6   138.2                  20          
Winds are 1-min average.

Tropical cyclone tracks developed by Michael Bath using data from the Joint Typhoon Warning Centre Best Tracks and Google Maps.


[Australian Severe Weather index] [Copyright Notice] [Email Contacts] [Search This Site] [Privacy Policy]
Document: tropical_cyclone_198504.htm Updated: 18 September 2016